sensor_id;sensor_type;location;lat;lon;timestamp;temperature;humidity
2653;DHT22;1336;48.692;9.144;2022-12-08T06:00:20;3.00;97.20
2653;DHT22;1336;48.692;9.144;2022-12-08T06:01:18;3.00;97.20
2653;DHT22;1336;48.692;9.144;2022-12-08T06:02:09;3.00;97.20
2653;DHT22;1336;48.692;9.144;2022-12-08T06:03:01;3.00;97.20
2653;DHT22;1336;48.692;9.144;2022-12-08T06:03:53;3.00;97.20
2653;DHT22;1336;48.692;9.144;2022-12-08T06:04:44;2.90;97.20
2653;DHT22;1336;48.692;9.144;2022-12-08T06:05:35;3.00;97.20
2653;DHT22;1336;48.692;9.144;2022-12-08T06:06:28;2.90;97.20
2653;DHT22;1336;48.692;9.144;2022-12-08T06:07:19;3.00;97.20
2653;DHT22;1336;48.692;9.144;2022-12-08T06:08:11;3.00;97.20
2653;DHT22;1336;48.692;9.144;2022-12-08T06:09:03;3.00;97.20
2653;DHT22;1336;48.692;9.144;2022-12-08T06:09:55;2.90;97.20
2653;DHT22;1336;48.692;9.144;2022-12-08T06:10:46;2.90;97.20
2653;DHT22;1336;48.692;9.144;2022-12-08T06:11:38;2.90;97.20
2653;DHT22;1336;48.692;9.144;2022-12-08T06:12:29;2.90;97.20
2653;DHT22;1336;48.692;9.144;2022-12-08T06:13:20;2.90;97.20
2653;DHT22;1336;48.692;9.144;2022-12-08T06:14:11;2.90;97.20
2653;DHT22;1336;48.692;9.144;2022-12-08T06:15:04;2.90;97.20
2653;DHT22;1336;48.692;9.144;2022-12-08T06:16:02;2.90;97.20
2653;DHT22;1336;48.692;9.144;2022-12-08T06:16:54;2.90;97.20
2653;DHT22;1336;48.692;9.144;2022-12-08T06:17:45;2.90;97.20
2653;DHT22;1336;48.692;9.144;2022-12-08T06:18:37;2.90;97.20
2653;DHT22;1336;48.692;9.144;2022-12-08T06:19:28;2.90;97.20
2653;DHT22;1336;48.692;9.144;2022-12-08T06:20:20;2.80;97.20
2653;DHT22;1336;48.692;9.144;2022-12-08T06:21:12;2.80;97.20
2653;DHT22;1336;48.692;9.144;2022-12-08T06:22:04;2.80;97.20
2653;DHT22;1336;48.692;9.144;2022-12-08T06:22:55;2.80;97.20
2653;DHT22;1336;48.692;9.144;2022-12-08T06:23:47;2.90;97.20
2653;DHT22;1336;48.692;9.144;2022-12-08T06:24:38;2.80;97.20
2653;DHT22;1336;48.692;9.144;2022-12-08T06:25:30;2.90;97.20
2653;DHT22;1336;48.692;9.144;2022-12-08T06:26:21;2.90;97.20
2653;DHT22;1336;48.692;9.144;2022-12-08T06:27:12;2.90;97.20
2653;DHT22;1336;48.692;9.144;2022-12-08T06:28:04;2.90;97.20
2653;DHT22;1336;48.692;9.144;2022-12-08T06:28:56;2.90;97.20
2653;DHT22;1336;48.692;9.144;2022-12-08T06:29:47;2.90;97.20
2653;DHT22;1336;48.692;9.144;2022-12-08T06:30:38;2.90;97.20
2653;DHT22;1336;48.692;9.144;2022-12-08T06:31:30;2.90;97.20
2653;DHT22;1336;48.692;9.144;2022-12-08T06:32:22;2.90;97.20
2653;DHT22;1336;48.692;9.144;2022-12-08T06:33:13;2.90;97.20
2653;DHT22;1336;48.692;9.144;2022-12-08T06:34:04;2.90;97.20
2653;DHT22;1336;48.692;9.144;2022-12-08T06:34:55;2.90;97.20
2653;DHT22;1336;48.692;9.144;2022-12-08T06:35:47;2.90;97.20
2653;DHT22;1336;48.692;9.144;2022-12-08T06:36:38;2.90;97.20
2653;DHT22;1336;48.692;9.144;2022-12-08T06:37:29;2.90;97.20
2653;DHT22;1336;48.692;9.144;2022-12-08T06:38:20;2.90;97.20
2653;DHT22;1336;48.692;9.144;2022-12-08T06:39:12;2.90;97.20
2653;DHT22;1336;48.692;9.144;2022-12-08T06:40:03;2.90;97.20
2653;DHT22;1336;48.692;9.144;2022-12-08T06:40:57;2.80;97.20
2653;DHT22;1336;48.692;9.144;2022-12-08T06:41:48;2.80;97.20
2653;DHT22;1336;48.692;9.144;2022-12-08T06:42:57;2.80;97.20
2653;DHT22;1336;48.692;9.144;2022-12-08T06:43:49;2.80;97.20
2653;DHT22;1336;48.692;9.144;2022-12-08T06:44:40;2.80;97.20
2653;DHT22;1336;48.692;9.144;2022-12-08T06:45:32;2.80;97.20
2653;DHT22;1336;48.692;9.144;2022-12-08T06:46:23;2.80;97.20
2653;DHT22;1336;48.692;9.144;2022-12-08T06:47:16;2.80;97.20
2653;DHT22;1336;48.692;9.144;2022-12-08T06:48:07;2.80;97.20
2653;DHT22;1336;48.692;9.144;2022-12-08T06:48:58;2.80;97.20
2653;DHT22;1336;48.692;9.144;2022-12-08T06:49:49;2.80;97.20
2653;DHT22;1336;48.692;9.144;2022-12-08T06:50:41;2.80;97.20
2653;DHT22;1336;48.692;9.144;2022-12-08T06:51:31;2.70;97.20
2653;DHT22;1336;48.692;9.144;2022-12-08T06:52:23;2.70;97.20
2653;DHT22;1336;48.692;9.144;2022-12-08T06:53:14;2.70;97.20
2653;DHT22;1336;48.692;9.144;2022-12-08T06:54:06;2.70;97.20
2653;DHT22;1336;48.692;9.144;2022-12-08T06:54:57;2.70;97.20
2653;DHT22;1336;48.692;9.144;2022-12-08T06:55:51;2.70;97.20
2653;DHT22;1336;48.692;9.144;2022-12-08T06:56:42;2.70;97.20
2653;DHT22;1336;48.692;9.144;2022-12-08T06:57:34;2.70;97.20
2653;DHT22;1336;48.692;9.144;2022-12-08T06:58:25;2.80;97.20
2653;DHT22;1336;48.692;9.144;2022-12-08T06:59:16;2.70;97.20
2653;DHT22;1336;48.692;9.144;2022-12-08T07:00:09;2.70;97.20
2653;DHT22;1336;48.692;9.144;2022-12-08T07:01:06;2.70;97.20
2653;DHT22;1336;48.692;9.144;2022-12-08T07:01:57;2.70;97.20
2653;DHT22;1336;48.692;9.144;2022-12-08T07:02:50;2.70;97.20
2653;DHT22;1336;48.692;9.144;2022-12-08T07:03:41;2.70;97.20
2653;DHT22;1336;48.692;9.144;2022-12-08T07:04:33;2.70;97.20
2653;DHT22;1336;48.692;9.144;2022-12-08T07:05:24;2.70;97.20
2653;DHT22;1336;48.692;9.144;2022-12-08T07:06:19;2.80;97.20
2653;DHT22;1336;48.692;9.144;2022-12-08T07:07:11;2.80;97.20
2653;DHT22;1336;48.692;9.144;2022-12-08T07:08:03;2.80;97.20
2653;DHT22;1336;48.692;9.144;2022-12-08T07:08:56;2.80;97.20
2653;DHT22;1336;48.692;9.144;2022-12-08T07:09:47;2.70;97.20
2653;DHT22;1336;48.692;9.144;2022-12-08T07:10:38;2.80;97.20
2653;DHT22;1336;48.692;9.144;2022-12-08T07:11:29;2.80;97.20
2653;DHT22;1336;48.692;9.144;2022-12-08T07:12:21;2.80;97.20
2653;DHT22;1336;48.692;9.144;2022-12-08T07:13:12;2.70;97.20
2653;DHT22;1336;48.692;9.144;2022-12-08T07:14:04;2.70;97.20
2653;DHT22;1336;48.692;9.144;2022-12-08T07:14:54;2.70;97.20
2653;DHT22;1336;48.692;9.144;2022-12-08T07:15:47;2.70;97.20
2653;DHT22;1336;48.692;9.144;2022-12-08T07:16:38;2.80;97.20
2653;DHT22;1336;48.692;9.144;2022-12-08T07:17:30;2.80;97.20
2653;DHT22;1336;48.692;9.144;2022-12-08T07:18:23;2.80;97.20
2653;DHT22;1336;48.692;9.144;2022-12-08T07:19:15;2.80;97.20
2653;DHT22;1336;48.692;9.144;2022-12-08T07:20:07;2.80;97.20
2653;DHT22;1336;48.692;9.144;2022-12-08T07:21:02;2.80;97.20
2653;DHT22;1336;48.692;9.144;2022-12-08T07:21:53;2.80;97.20
2653;DHT22;1336;48.692;9.144;2022-12-08T07:22:47;2.80;97.20
2653;DHT22;1336;48.692;9.144;2022-12-08T07:23:40;2.80;97.20
2653;DHT22;1336;48.692;9.144;2022-12-08T07:24:33;2.80;97.20
2653;DHT22;1336;48.692;9.144;2022-12-08T07:25:24;2.80;97.20
2653;DHT22;1336;48.692;9.144;2022-12-08T07:26:16;2.70;97.20
2653;DHT22;1336;48.692;9.144;2022-12-08T07:27:07;2.70;97.20
2653;DHT22;1336;48.692;9.144;2022-12-08T07:27:59;2.70;97.20
2653;DHT22;1336;48.692;9.144;2022-12-08T07:28:50;2.70;97.20
2653;DHT22;1336;48.692;9.144;2022-12-08T07:29:41;2.70;97.20
2653;DHT22;1336;48.692;9.144;2022-12-08T07:30:32;2.70;97.20
2653;DHT22;1336;48.692;9.144;2022-12-08T07:31:24;2.60;97.20
2653;DHT22;1336;48.692;9.144;2022-12-08T07:32:15;2.60;97.20
2653;DHT22;1336;48.692;9.144;2022-12-08T07:33:07;2.60;97.20
2653;DHT22;1336;48.692;9.144;2022-12-08T07:33:59;2.60;97.20
2653;DHT22;1336;48.692;9.144;2022-12-08T07:34:51;2.60;97.20
2653;DHT22;1336;48.692;9.144;2022-12-08T07:35:42;2.60;97.20
2653;DHT22;1336;48.692;9.144;2022-12-08T07:36:33;2.60;97.20
2653;DHT22;1336;48.692;9.144;2022-12-08T07:37:24;2.60;97.20
2653;DHT22;1336;48.692;9.144;2022-12-08T07:38:16;2.60;97.20
2653;DHT22;1336;48.692;9.144;2022-12-08T07:39:07;2.70;97.20
2653;DHT22;1336;48.692;9.144;2022-12-08T07:39:58;2.70;97.20
2653;DHT22;1336;48.692;9.144;2022-12-08T07:40:50;2.60;97.20
2653;DHT22;1336;48.692;9.144;2022-12-08T07:41:41;2.60;97.20
2653;DHT22;1336;48.692;9.144;2022-12-08T07:42:32;2.60;97.20
2653;DHT22;1336;48.692;9.144;2022-12-08T07:43:24;2.70;97.20
2653;DHT22;1336;48.692;9.144;2022-12-08T07:44:15;2.70;97.20
2653;DHT22;1336;48.692;9.144;2022-12-08T07:45:07;2.70;97.20
2653;DHT22;1336;48.692;9.144;2022-12-08T07:45:58;2.70;97.20
2653;DHT22;1336;48.692;9.144;2022-12-08T07:46:50;2.70;97.20
2653;DHT22;1336;48.692;9.144;2022-12-08T07:47:41;2.70;97.20
2653;DHT22;1336;48.692;9.144;2022-12-08T07:48:33;2.70;97.20
2653;DHT22;1336;48.692;9.144;2022-12-08T07:49:25;2.70;97.20
2653;DHT22;1336;48.692;9.144;2022-12-08T07:50:16;2.70;97.20
2653;DHT22;1336;48.692;9.144;2022-12-08T07:51:07;2.70;97.20
2653;DHT22;1336;48.692;9.144;2022-12-08T07:51:59;2.70;97.20
2653;DHT22;1336;48.692;9.144;2022-12-08T07:52:50;2.80;97.20
2653;DHT22;1336;48.692;9.144;2022-12-08T07:53:43;2.80;97.20
2653;DHT22;1336;48.692;9.144;2022-12-08T07:54:34;2.80;97.20
2653;DHT22;1336;48.692;9.144;2022-12-08T07:55:26;2.80;97.20
2653;DHT22;1336;48.692;9.144;2022-12-08T07:56:18;2.80;97.20
2653;DHT22;1336;48.692;9.144;2022-12-08T07:57:09;2.80;97.20
2653;DHT22;1336;48.692;9.144;2022-12-08T07:58:00;2.80;97.20
2653;DHT22;1336;48.692;9.144;2022-12-08T07:58:52;2.80;97.20
2653;DHT22;1336;48.692;9.144;2022-12-08T07:59:43;2.80;97.20
2653;DHT22;1336;48.692;9.144;2022-12-08T08:00:35;2.80;97.20
2653;DHT22;1336;48.692;9.144;2022-12-08T08:01:27;2.80;97.20
2653;DHT22;1336;48.692;9.144;2022-12-08T08:02:19;2.90;97.20
2653;DHT22;1336;48.692;9.144;2022-12-08T08:03:10;2.90;97.20
2653;DHT22;1336;48.692;9.144;2022-12-08T08:04:03;2.90;97.20
2653;DHT22;1336;48.692;9.144;2022-12-08T08:04:56;2.90;97.20
2653;DHT22;1336;48.692;9.144;2022-12-08T08:05:47;3.00;97.20
2653;DHT22;1336;48.692;9.144;2022-12-08T08:06:39;3.00;97.20
2653;DHT22;1336;48.692;9.144;2022-12-08T08:07:30;3.00;97.20
2653;DHT22;1336;48.692;9.144;2022-12-08T08:08:22;3.00;97.20
2653;DHT22;1336;48.692;9.144;2022-12-08T08:09:12;3.10;97.20
2653;DHT22;1336;48.692;9.144;2022-12-08T08:10:05;3.10;97.20
2653;DHT22;1336;48.692;9.144;2022-12-08T08:10:56;3.10;97.20
2653;DHT22;1336;48.692;9.144;2022-12-08T08:11:48;3.20;97.20
2653;DHT22;1336;48.692;9.144;2022-12-08T08:12:38;3.20;97.20
2653;DHT22;1336;48.692;9.144;2022-12-08T08:13:30;3.30;97.20
2653;DHT22;1336;48.692;9.144;2022-12-08T08:14:21;3.30;97.20
2653;DHT22;1336;48.692;9.144;2022-12-08T08:15:13;3.30;97.20
2653;DHT22;1336;48.692;9.144;2022-12-08T08:16:04;3.40;97.20
2653;DHT22;1336;48.692;9.144;2022-12-08T08:16:56;3.40;97.20
2653;DHT22;1336;48.692;9.144;2022-12-08T08:17:49;3.50;97.20
2653;DHT22;1336;48.692;9.144;2022-12-08T08:18:41;3.50;97.20
2653;DHT22;1336;48.692;9.144;2022-12-08T08:19:32;3.50;97.20
2653;DHT22;1336;48.692;9.144;2022-12-08T08:20:26;3.60;97.20
2653;DHT22;1336;48.692;9.144;2022-12-08T08:21:18;3.60;97.20
2653;DHT22;1336;48.692;9.144;2022-12-08T08:22:10;3.70;97.20
2653;DHT22;1336;48.692;9.144;2022-12-08T08:23:00;3.70;97.20
2653;DHT22;1336;48.692;9.144;2022-12-08T08:23:52;3.70;97.20
2653;DHT22;1336;48.692;9.144;2022-12-08T08:24:43;3.80;97.20
2653;DHT22;1336;48.692;9.144;2022-12-08T08:25:34;3.80;97.20
2653;DHT22;1336;48.692;9.144;2022-12-08T08:26:25;3.80;97.20
2653;DHT22;1336;48.692;9.144;2022-12-08T08:27:17;3.90;97.20
2653;DHT22;1336;48.692;9.144;2022-12-08T08:28:08;3.90;97.20
2653;DHT22;1336;48.692;9.144;2022-12-08T08:28:59;3.90;97.20
2653;DHT22;1336;48.692;9.144;2022-12-08T08:29:50;3.90;97.20
2653;DHT22;1336;48.692;9.144;2022-12-08T08:30:42;4.00;97.20
2653;DHT22;1336;48.692;9.144;2022-12-08T08:31:33;4.00;97.20
2653;DHT22;1336;48.692;9.144;2022-12-08T08:32:24;4.00;97.20
2653;DHT22;1336;48.692;9.144;2022-12-08T08:33:15;4.00;97.20
2653;DHT22;1336;48.692;9.144;2022-12-08T08:34:07;4.00;97.20
2653;DHT22;1336;48.692;9.144;2022-12-08T08:34:58;4.00;97.20
2653;DHT22;1336;48.692;9.144;2022-12-08T08:35:51;4.00;97.20
2653;DHT22;1336;48.692;9.144;2022-12-08T08:36:42;4.00;97.20
2653;DHT22;1336;48.692;9.144;2022-12-08T08:37:34;4.00;97.20
2653;DHT22;1336;48.692;9.144;2022-12-08T08:38:25;4.00;97.20
2653;DHT22;1336;48.692;9.144;2022-12-08T08:39:17;4.00;97.20
2653;DHT22;1336;48.692;9.144;2022-12-08T08:40:08;4.10;97.20
2653;DHT22;1336;48.692;9.144;2022-12-08T08:41:06;4.10;97.20
2653;DHT22;1336;48.692;9.144;2022-12-08T08:41:57;4.20;97.20
2653;DHT22;1336;48.692;9.144;2022-12-08T08:42:48;4.20;97.20
2653;DHT22;1336;48.692;9.144;2022-12-08T08:43:39;4.30;97.20
2653;DHT22;1336;48.692;9.144;2022-12-08T08:44:31;4.30;97.20
2653;DHT22;1336;48.692;9.144;2022-12-08T08:45:22;4.30;97.20
2653;DHT22;1336;48.692;9.144;2022-12-08T08:46:13;4.40;97.20
2653;DHT22;1336;48.692;9.144;2022-12-08T08:47:04;4.40;97.20
2653;DHT22;1336;48.692;9.144;2022-12-08T08:47:56;4.40;97.20
2653;DHT22;1336;48.692;9.144;2022-12-08T08:48:47;4.50;97.20
2653;DHT22;1336;48.692;9.144;2022-12-08T08:49:39;4.50;97.20
2653;DHT22;1336;48.692;9.144;2022-12-08T08:50:29;4.60;97.20
2653;DHT22;1336;48.692;9.144;2022-12-08T08:51:22;4.60;97.20
2653;DHT22;1336;48.692;9.144;2022-12-08T08:52:13;4.70;97.20
2653;DHT22;1336;48.692;9.144;2022-12-08T08:53:05;4.70;97.20
2653;DHT22;1336;48.692;9.144;2022-12-08T08:53:56;4.80;97.20
2653;DHT22;1336;48.692;9.144;2022-12-08T08:54:47;4.80;97.20
2653;DHT22;1336;48.692;9.144;2022-12-08T08:55:38;4.80;97.20
2653;DHT22;1336;48.692;9.144;2022-12-08T08:56:30;4.80;97.20
2653;DHT22;1336;48.692;9.144;2022-12-08T08:57:21;4.80;97.20
2653;DHT22;1336;48.692;9.144;2022-12-08T08:58:12;4.80;97.20
2653;DHT22;1336;48.692;9.144;2022-12-08T08:59:03;4.80;97.20
2653;DHT22;1336;48.692;9.144;2022-12-08T08:59:55;4.80;97.20
2653;DHT22;1336;48.692;9.144;2022-12-08T09:00:46;4.80;97.20
2653;DHT22;1336;48.692;9.144;2022-12-08T09:01:38;4.90;97.20
2653;DHT22;1336;48.692;9.144;2022-12-08T09:02:28;4.90;97.20
2653;DHT22;1336;48.692;9.144;2022-12-08T09:03:20;4.90;97.20
2653;DHT22;1336;48.692;9.144;2022-12-08T09:04:11;4.90;97.20
2653;DHT22;1336;48.692;9.144;2022-12-08T09:05:04;4.90;97.20
2653;DHT22;1336;48.692;9.144;2022-12-08T09:05:56;4.90;97.20
2653;DHT22;1336;48.692;9.144;2022-12-08T09:06:52;4.90;97.20
2653;DHT22;1336;48.692;9.144;2022-12-08T09:07:42;4.80;97.20
2653;DHT22;1336;48.692;9.144;2022-12-08T09:08:34;4.80;97.20
2653;DHT22;1336;48.692;9.144;2022-12-08T09:09:25;4.80;97.20
2653;DHT22;1336;48.692;9.144;2022-12-08T09:10:17;4.80;97.20
2653;DHT22;1336;48.692;9.144;2022-12-08T09:11:08;4.90;97.20
2653;DHT22;1336;48.692;9.144;2022-12-08T09:12:01;4.90;97.20
2653;DHT22;1336;48.692;9.144;2022-12-08T09:12:52;5.00;97.20
2653;DHT22;1336;48.692;9.144;2022-12-08T09:13:46;5.00;97.20
2653;DHT22;1336;48.692;9.144;2022-12-08T09:14:37;5.00;97.20
2653;DHT22;1336;48.692;9.144;2022-12-08T09:15:30;5.10;97.20
2653;DHT22;1336;48.692;9.144;2022-12-08T09:16:21;5.20;97.20
2653;DHT22;1336;48.692;9.144;2022-12-08T09:17:13;5.20;97.20
2653;DHT22;1336;48.692;9.144;2022-12-08T09:18:04;5.30;97.20
2653;DHT22;1336;48.692;9.144;2022-12-08T09:18:57;5.40;97.20
2653;DHT22;1336;48.692;9.144;2022-12-08T09:19:48;5.40;97.20
2653;DHT22;1336;48.692;9.144;2022-12-08T09:20:40;5.40;97.20
2653;DHT22;1336;48.692;9.144;2022-12-08T09:21:30;5.50;97.20
2653;DHT22;1336;48.692;9.144;2022-12-08T09:22:23;5.60;97.20
2653;DHT22;1336;48.692;9.144;2022-12-08T09:23:15;5.60;97.20
2653;DHT22;1336;48.692;9.144;2022-12-08T09:24:06;5.60;97.20
2653;DHT22;1336;48.692;9.144;2022-12-08T09:25:00;5.70;97.20
2653;DHT22;1336;48.692;9.144;2022-12-08T09:25:50;5.70;97.20
2653;DHT22;1336;48.692;9.144;2022-12-08T09:26:43;5.80;97.20
2653;DHT22;1336;48.692;9.144;2022-12-08T09:27:33;5.80;97.20
2653;DHT22;1336;48.692;9.144;2022-12-08T09:28:25;5.80;97.20
2653;DHT22;1336;48.692;9.144;2022-12-08T09:29:16;5.80;97.20
2653;DHT22;1336;48.692;9.144;2022-12-08T09:30:08;5.80;97.20
2653;DHT22;1336;48.692;9.144;2022-12-08T09:30:59;5.80;97.20
2653;DHT22;1336;48.692;9.144;2022-12-08T09:31:51;5.90;97.20
2653;DHT22;1336;48.692;9.144;2022-12-08T09:32:43;5.90;97.20
2653;DHT22;1336;48.692;9.144;2022-12-08T09:33:35;5.90;97.20
2653;DHT22;1336;48.692;9.144;2022-12-08T09:34:26;6.00;97.20
2653;DHT22;1336;48.692;9.144;2022-12-08T09:35:18;6.10;97.20
2653;DHT22;1336;48.692;9.144;2022-12-08T09:36:09;6.10;97.20
2653;DHT22;1336;48.692;9.144;2022-12-08T09:37:01;6.30;97.20
2653;DHT22;1336;48.692;9.144;2022-12-08T09:37:54;6.30;97.20
2653;DHT22;1336;48.692;9.144;2022-12-08T09:38:45;6.40;97.20
2653;DHT22;1336;48.692;9.144;2022-12-08T09:39:37;6.50;97.20
2653;DHT22;1336;48.692;9.144;2022-12-08T09:40:31;6.50;97.20
2653;DHT22;1336;48.692;9.144;2022-12-08T09:41:31;6.50;97.20
2653;DHT22;1336;48.692;9.144;2022-12-08T09:42:32;6.60;97.20
2653;DHT22;1336;48.692;9.144;2022-12-08T09:43:42;6.70;97.20
2653;DHT22;1336;48.692;9.144;2022-12-08T09:44:45;6.70;97.20
2653;DHT22;1336;48.692;9.144;2022-12-08T09:45:37;6.80;97.20
2653;DHT22;1336;48.692;9.144;2022-12-08T09:46:31;6.90;97.20
2653;DHT22;1336;48.692;9.144;2022-12-08T09:47:26;6.90;97.20
2653;DHT22;1336;48.692;9.144;2022-12-08T09:48:21;7.00;97.20
2653;DHT22;1336;48.692;9.144;2022-12-08T09:49:16;7.00;97.20
2653;DHT22;1336;48.692;9.144;2022-12-08T09:50:13;7.00;97.20
2653;DHT22;1336;48.692;9.144;2022-12-08T09:51:05;7.00;97.20
2653;DHT22;1336;48.692;9.144;2022-12-08T09:51:56;7.10;97.20
2653;DHT22;1336;48.692;9.144;2022-12-08T09:52:53;7.10;97.20
2653;DHT22;1336;48.692;9.144;2022-12-08T09:53:55;7.10;97.20
2653;DHT22;1336;48.692;9.144;2022-12-08T09:54:46;7.10;97.20
2653;DHT22;1336;48.692;9.144;2022-12-08T09:55:41;7.20;97.20
2653;DHT22;1336;48.692;9.144;2022-12-08T09:56:35;7.20;97.20
2653;DHT22;1336;48.692;9.144;2022-12-08T09:57:26;7.30;97.20
2653;DHT22;1336;48.692;9.144;2022-12-08T09:58:24;7.30;97.20
2653;DHT22;1336;48.692;9.144;2022-12-08T09:59:21;7.40;97.20
2653;DHT22;1336;48.692;9.144;2022-12-08T10:00:14;7.50;97.20
2653;DHT22;1336;48.692;9.144;2022-12-08T10:01:08;7.50;97.20
2653;DHT22;1336;48.692;9.144;2022-12-08T10:02:00;7.50;97.20
2653;DHT22;1336;48.692;9.144;2022-12-08T10:02:51;7.50;97.20
2653;DHT22;1336;48.692;9.144;2022-12-08T10:03:43;7.50;97.20
2653;DHT22;1336;48.692;9.144;2022-12-08T10:04:36;7.60;97.20
2653;DHT22;1336;48.692;9.144;2022-12-08T10:05:33;7.70;97.20
2653;DHT22;1336;48.692;9.144;2022-12-08T10:06:29;7.70;97.20
2653;DHT22;1336;48.692;9.144;2022-12-08T10:07:29;7.80;97.20
2653;DHT22;1336;48.692;9.144;2022-12-08T10:08:27;7.80;97.20
2653;DHT22;1336;48.692;9.144;2022-12-08T10:09:25;7.90;97.20
2653;DHT22;1336;48.692;9.144;2022-12-08T10:10:25;7.90;97.20
2653;DHT22;1336;48.692;9.144;2022-12-08T10:11:23;8.00;97.20
2653;DHT22;1336;48.692;9.144;2022-12-08T10:12:21;8.10;97.20
2653;DHT22;1336;48.692;9.144;2022-12-08T10:13:19;8.20;97.20
2653;DHT22;1336;48.692;9.144;2022-12-08T10:14:17;8.30;97.20
2653;DHT22;1336;48.692;9.144;2022-12-08T10:15:25;8.30;97.20
2653;DHT22;1336;48.692;9.144;2022-12-08T10:16:26;8.30;97.20
2653;DHT22;1336;48.692;9.144;2022-12-08T10:17:25;8.40;97.20
2653;DHT22;1336;48.692;9.144;2022-12-08T10:18:18;8.40;97.20
2653;DHT22;1336;48.692;9.144;2022-12-08T10:19:13;8.50;97.20
2653;DHT22;1336;48.692;9.144;2022-12-08T10:20:12;8.50;97.20
2653;DHT22;1336;48.692;9.144;2022-12-08T10:21:14;8.50;97.20
2653;DHT22;1336;48.692;9.144;2022-12-08T10:22:22;8.50;97.20
2653;DHT22;1336;48.692;9.144;2022-12-08T10:23:21;8.60;97.20
2653;DHT22;1336;48.692;9.144;2022-12-08T10:24:19;8.60;97.20
2653;DHT22;1336;48.692;9.144;2022-12-08T10:25:17;8.70;97.20
2653;DHT22;1336;48.692;9.144;2022-12-08T10:26:12;8.80;97.20
2653;DHT22;1336;48.692;9.144;2022-12-08T10:27:07;8.90;97.20
2653;DHT22;1336;48.692;9.144;2022-12-08T10:28:00;9.00;97.20
2653;DHT22;1336;48.692;9.144;2022-12-08T10:28:52;9.10;97.20
2653;DHT22;1336;48.692;9.144;2022-12-08T10:29:43;9.20;97.20
2653;DHT22;1336;48.692;9.144;2022-12-08T10:30:35;9.30;97.20
2653;DHT22;1336;48.692;9.144;2022-12-08T10:31:25;9.30;97.20
2653;DHT22;1336;48.692;9.144;2022-12-08T10:32:20;9.40;97.20
2653;DHT22;1336;48.692;9.144;2022-12-08T10:33:14;9.40;97.20
2653;DHT22;1336;48.692;9.144;2022-12-08T10:34:14;9.40;97.20
2653;DHT22;1336;48.692;9.144;2022-12-08T10:35:08;9.50;97.20
2653;DHT22;1336;48.692;9.144;2022-12-08T10:36:01;9.50;97.20
2653;DHT22;1336;48.692;9.144;2022-12-08T10:36:55;9.50;97.20
2653;DHT22;1336;48.692;9.144;2022-12-08T10:37:54;9.60;97.20
2653;DHT22;1336;48.692;9.144;2022-12-08T10:38:45;9.70;97.20
2653;DHT22;1336;48.692;9.144;2022-12-08T10:39:39;9.80;97.20
2653;DHT22;1336;48.692;9.144;2022-12-08T10:40:35;9.90;97.20
2653;DHT22;1336;48.692;9.144;2022-12-08T10:41:27;9.90;97.20
2653;DHT22;1336;48.692;9.144;2022-12-08T10:42:20;9.90;97.20
2653;DHT22;1336;48.692;9.144;2022-12-08T10:43:14;10.00;97.20
2653;DHT22;1336;48.692;9.144;2022-12-08T10:44:08;10.10;97.20
2653;DHT22;1336;48.692;9.144;2022-12-08T10:45:08;10.20;97.20
2653;DHT22;1336;48.692;9.144;2022-12-08T10:46:10;10.30;97.20
2653;DHT22;1336;48.692;9.144;2022-12-08T10:47:10;10.30;97.20
2653;DHT22;1336;48.692;9.144;2022-12-08T10:48:03;10.30;97.20
2653;DHT22;1336;48.692;9.144;2022-12-08T10:49:10;10.40;97.20
2653;DHT22;1336;48.692;9.144;2022-12-08T10:50:08;10.40;97.20
2653;DHT22;1336;48.692;9.144;2022-12-08T10:50:59;10.40;97.20
2653;DHT22;1336;48.692;9.144;2022-12-08T10:51:54;10.40;97.20
2653;DHT22;1336;48.692;9.144;2022-12-08T10:52:45;10.40;97.20
2653;DHT22;1336;48.692;9.144;2022-12-08T10:53:45;10.40;97.20
2653;DHT22;1336;48.692;9.144;2022-12-08T10:54:36;10.40;97.20
2653;DHT22;1336;48.692;9.144;2022-12-08T10:55:28;10.30;97.20
2653;DHT22;1336;48.692;9.144;2022-12-08T10:56:31;10.30;97.20
2653;DHT22;1336;48.692;9.144;2022-12-08T10:57:23;10.20;97.20
2653;DHT22;1336;48.692;9.144;2022-12-08T10:58:30;10.20;97.20
2653;DHT22;1336;48.692;9.144;2022-12-08T10:59:23;10.20;97.20
2653;DHT22;1336;48.692;9.144;2022-12-08T11:00:16;10.20;97.20
2653;DHT22;1336;48.692;9.144;2022-12-08T11:01:11;10.20;97.20
2653;DHT22;1336;48.692;9.144;2022-12-08T11:02:02;10.30;97.20
2653;DHT22;1336;48.692;9.144;2022-12-08T11:02:59;10.40;97.20
2653;DHT22;1336;48.692;9.144;2022-12-08T11:03:51;10.40;97.20
2653;DHT22;1336;48.692;9.144;2022-12-08T11:04:44;10.40;97.20
2653;DHT22;1336;48.692;9.144;2022-12-08T11:05:36;10.40;97.20
2653;DHT22;1336;48.692;9.144;2022-12-08T11:06:33;10.40;97.20
2653;DHT22;1336;48.692;9.144;2022-12-08T11:07:26;10.40;97.20
2653;DHT22;1336;48.692;9.144;2022-12-08T11:08:17;10.40;97.20
2653;DHT22;1336;48.692;9.144;2022-12-08T11:09:23;10.40;97.20
2653;DHT22;1336;48.692;9.144;2022-12-08T11:10:18;10.30;97.20
2653;DHT22;1336;48.692;9.144;2022-12-08T11:11:10;10.30;97.20
2653;DHT22;1336;48.692;9.144;2022-12-08T11:12:08;10.20;97.20
2653;DHT22;1336;48.692;9.144;2022-12-08T11:13:04;10.20;97.20
2653;DHT22;1336;48.692;9.144;2022-12-08T11:13:55;10.20;97.20
2653;DHT22;1336;48.692;9.144;2022-12-08T11:14:49;10.20;97.20
2653;DHT22;1336;48.692;9.144;2022-12-08T11:15:40;10.20;97.20
2653;DHT22;1336;48.692;9.144;2022-12-08T11:16:36;10.20;97.20
2653;DHT22;1336;48.692;9.144;2022-12-08T11:17:35;10.10;97.20
2653;DHT22;1336;48.692;9.144;2022-12-08T11:18:37;10.10;97.20
2653;DHT22;1336;48.692;9.144;2022-12-08T11:19:29;10.00;97.20
2653;DHT22;1336;48.692;9.144;2022-12-08T11:20:21;9.90;97.20
2653;DHT22;1336;48.692;9.144;2022-12-08T11:21:15;9.80;97.20
2653;DHT22;1336;48.692;9.144;2022-12-08T11:22:20;9.60;97.20
2653;DHT22;1336;48.692;9.144;2022-12-08T11:23:19;9.30;97.20
2653;DHT22;1336;48.692;9.144;2022-12-08T11:24:21;9.10;97.20
2653;DHT22;1336;48.692;9.144;2022-12-08T11:25:17;9.00;97.20
2653;DHT22;1336;48.692;9.144;2022-12-08T11:26:17;8.90;97.20
2653;DHT22;1336;48.692;9.144;2022-12-08T11:27:12;8.80;97.20
2653;DHT22;1336;48.692;9.144;2022-12-08T11:28:06;8.90;97.20
2653;DHT22;1336;48.692;9.144;2022-12-08T11:28:58;9.00;97.20
2653;DHT22;1336;48.692;9.144;2022-12-08T11:29:49;9.00;97.20
2653;DHT22;1336;48.692;9.144;2022-12-08T11:30:43;9.10;97.20
2653;DHT22;1336;48.692;9.144;2022-12-08T11:31:40;9.20;97.20
2653;DHT22;1336;48.692;9.144;2022-12-08T11:32:32;9.40;97.20
2653;DHT22;1336;48.692;9.144;2022-12-08T11:33:25;9.50;97.20
2653;DHT22;1336;48.692;9.144;2022-12-08T11:34:20;9.60;97.20
2653;DHT22;1336;48.692;9.144;2022-12-08T11:35:21;9.60;97.20
2653;DHT22;1336;48.692;9.144;2022-12-08T11:36:14;9.60;97.20
2653;DHT22;1336;48.692;9.144;2022-12-08T11:37:11;9.50;97.20
2653;DHT22;1336;48.692;9.144;2022-12-08T11:38:14;9.50;97.20
2653;DHT22;1336;48.692;9.144;2022-12-08T11:39:09;9.50;97.20
2653;DHT22;1336;48.692;9.144;2022-12-08T11:40:05;9.40;97.20
2653;DHT22;1336;48.692;9.144;2022-12-08T11:41:02;9.40;97.20
2653;DHT22;1336;48.692;9.144;2022-12-08T11:41:55;9.40;97.20
2653;DHT22;1336;48.692;9.144;2022-12-08T11:42:55;9.30;97.20
2653;DHT22;1336;48.692;9.144;2022-12-08T11:43:53;9.30;97.20
2653;DHT22;1336;48.692;9.144;2022-12-08T11:44:49;9.20;97.20
2653;DHT22;1336;48.692;9.144;2022-12-08T11:45:43;9.20;97.20
2653;DHT22;1336;48.692;9.144;2022-12-08T11:46:38;9.20;97.20
2653;DHT22;1336;48.692;9.144;2022-12-08T11:47:35;9.30;97.20
2653;DHT22;1336;48.692;9.144;2022-12-08T11:48:32;9.30;97.20
2653;DHT22;1336;48.692;9.144;2022-12-08T11:49:32;9.30;97.20
2653;DHT22;1336;48.692;9.144;2022-12-08T11:50:27;9.40;97.20
2653;DHT22;1336;48.692;9.144;2022-12-08T11:51:23;9.40;97.20
2653;DHT22;1336;48.692;9.144;2022-12-08T11:52:21;9.50;97.20
2653;DHT22;1336;48.692;9.144;2022-12-08T11:53:19;9.50;97.20